createdAt,value
2019-02-05T00:02:27.784Z,19.67
2019-02-05T00:04:59.312Z,21.73
2019-02-05T00:07:31.287Z,18.05
2019-02-05T00:10:02.771Z,18.27
2019-02-05T00:12:34.672Z,19.07
2019-02-05T00:15:07.016Z,20.12
2019-02-05T00:17:38.393Z,22.10
2019-02-05T00:20:10.460Z,19.67
2019-02-05T00:22:42.052Z,20.40
2019-02-05T00:25:13.637Z,20.00
2019-02-05T00:27:45.260Z,23.60
2019-02-05T00:30:17.372Z,20.92
2019-02-05T00:32:49.256Z,22.40
2019-02-05T00:35:21.073Z,23.15
2019-02-05T00:37:52.676Z,25.95
2019-02-05T00:40:24.339Z,24.20
2019-02-05T00:42:56.197Z,23.57
2019-02-05T00:45:27.751Z,21.40
2019-02-05T00:47:59.086Z,23.55
2019-02-05T00:50:30.699Z,20.48
2019-02-05T00:53:01.961Z,23.40
2019-02-05T00:55:33.326Z,19.75
2019-02-05T00:58:05.070Z,22.62
2019-02-05T01:00:36.533Z,24.60
2019-02-05T01:03:08.085Z,20.88
2019-02-05T01:05:39.520Z,21.87
2019-02-05T01:08:10.964Z,22.07
2019-02-05T01:10:43.015Z,20.52
2019-02-05T01:13:14.621Z,19.82
2019-02-05T01:15:46.592Z,19.27
2019-02-05T01:18:18.218Z,21.30
2019-02-05T01:20:49.457Z,18.48
2019-02-05T01:23:20.852Z,20.90
2019-02-05T01:25:52.134Z,20.60
2019-02-05T01:28:23.649Z,22.42
2019-02-05T01:30:54.987Z,19.55
2019-02-05T01:33:26.555Z,21.30
2019-02-05T01:35:57.887Z,20.60
2019-02-05T01:38:29.124Z,19.40
2019-02-05T01:41:00.446Z,18.87
2019-02-05T01:43:33.123Z,18.57
2019-02-05T01:46:04.770Z,21.68
2019-02-05T01:48:36.224Z,21.68
2019-02-05T01:51:07.454Z,20.88
2019-02-05T01:53:38.966Z,21.15
2019-02-05T01:56:10.295Z,19.87
2019-02-05T01:58:41.679Z,21.50
2019-02-05T02:01:13.387Z,21.55
2019-02-05T02:03:44.780Z,19.40
2019-02-05T02:06:16.289Z,17.95
2019-02-05T02:08:48.004Z,21.10
2019-02-05T02:11:19.555Z,20.32
2019-02-05T02:13:51.263Z,26.02
2019-02-05T02:16:22.822Z,22.00
2019-02-05T02:18:54.324Z,21.85
2019-02-05T02:21:25.953Z,19.55
2019-02-05T02:23:57.584Z,22.85
2019-02-05T02:26:29.191Z,26.02
2019-02-05T02:29:00.955Z,20.68
2019-02-05T02:31:32.623Z,23.65
2019-02-05T02:34:04.247Z,22.82
2019-02-05T02:36:35.860Z,39.35
2019-02-05T02:39:08.799Z,28.98
2019-02-05T02:41:40.382Z,29.20
2019-02-05T02:44:11.613Z,26.45
2019-02-05T02:46:44.142Z,24.32
2019-02-05T02:49:15.678Z,27.62
2019-02-05T02:51:47.226Z,28.47
2019-02-05T02:54:18.842Z,28.52
2019-02-05T02:56:50.253Z,29.92
2019-02-05T02:59:21.791Z,26.70
2019-02-05T03:01:53.379Z,26.87
2019-02-05T03:04:24.869Z,26.87
2019-02-05T03:06:56.186Z,24.65
2019-02-05T03:09:27.918Z,33.15
2019-02-05T03:11:59.622Z,31.60
2019-02-05T03:14:31.150Z,32.05
2019-02-05T03:17:02.972Z,29.70
2019-02-05T03:19:34.623Z,30.55
2019-02-05T03:22:06.382Z,31.68
2019-02-05T03:24:37.874Z,29.02
2019-02-05T03:27:17.370Z,29.42
2019-02-05T03:29:42.688Z,28.90
2019-02-05T03:32:14.271Z,27.67
2019-02-05T03:34:45.516Z,27.80
2019-02-05T03:37:16.879Z,29.07
2019-02-05T03:39:48.281Z,33.18
2019-02-05T03:42:20.711Z,29.35
2019-02-05T03:44:52.158Z,30.20
2019-02-05T03:47:23.592Z,29.57
2019-02-05T03:49:56.449Z,30.00
2019-02-05T03:52:50.689Z,28.85
2019-02-05T03:55:57.706Z,29.77
2019-02-05T03:59:13.842Z,31.50
2019-02-05T04:02:33.670Z,30.55
2019-02-05T04:05:32.520Z,30.80
2019-02-05T04:08:25.354Z,35.83
2019-02-05T04:11:38.644Z,38.48
2019-02-05T04:14:45.781Z,32.40
2019-02-05T04:17:58.557Z,32.98
2019-02-05T04:21:16.797Z,31.75
2019-02-05T04:24:24.191Z,29.95
2019-02-05T04:27:43.734Z,30.80
2019-02-05T04:30:37.002Z,32.60
2019-02-05T04:33:35.607Z,29.65
2019-02-05T04:36:45.258Z,34.67
2019-02-05T04:39:38.582Z,34.35
2019-02-05T04:42:42.806Z,29.70
2019-02-05T04:45:51.903Z,34.35
2019-02-05T04:49:10.769Z,31.50
2019-02-05T04:52:24.321Z,32.80
2019-02-05T04:55:32.088Z,30.17
2019-02-05T04:58:31.682Z,29.72
2019-02-05T05:01:29.214Z,31.35
2019-02-05T05:04:19.520Z,33.23
2019-02-05T05:07:18.455Z,33.58
2019-02-05T05:09:58.243Z,30.88
2019-02-05T05:12:33.139Z,33.73
2019-02-05T05:15:05.530Z,34.50
2019-02-05T05:17:37.091Z,33.40
2019-02-05T05:20:11.069Z,35.50
2019-02-05T05:22:43.500Z,34.92
2019-02-05T05:25:15.143Z,35.78
2019-02-05T05:27:46.681Z,31.62
2019-02-05T05:30:19.667Z,32.93
2019-02-05T05:32:51.096Z,39.38
2019-02-05T05:35:22.751Z,33.08
2019-02-05T05:37:54.506Z,31.25
2019-02-05T05:40:26.180Z,35.38
2019-02-05T05:42:57.686Z,37.33
2019-02-05T05:45:29.060Z,35.52
2019-02-05T05:48:00.598Z,33.02
2019-02-05T05:50:32.264Z,32.88
2019-02-05T05:53:03.484Z,33.92
2019-02-05T05:55:34.868Z,34.90
2019-02-05T05:58:06.256Z,40.80
2019-02-05T06:00:38.071Z,43.50
2019-02-05T06:03:10.484Z,40.52
2019-02-05T06:05:42.181Z,35.35
2019-02-05T06:08:14.215Z,37.35
2019-02-05T06:10:45.841Z,38.65
2019-02-05T06:13:17.228Z,33.35
2019-02-05T06:15:48.611Z,32.65
2019-02-05T06:18:20.785Z,37.70
2019-02-05T06:20:52.294Z,34.48
2019-02-05T06:23:23.654Z,35.75
2019-02-05T06:25:55.390Z,39.15
2019-02-05T06:28:34.256Z,33.35
2019-02-05T06:31:00.179Z,35.00
2019-02-05T06:33:31.707Z,40.23
2019-02-05T06:36:03.521Z,40.30
2019-02-05T06:38:34.810Z,54.40
2019-02-05T06:41:06.607Z,43.50
2019-02-05T06:43:38.266Z,44.13
2019-02-05T06:46:09.791Z,39.05
2019-02-05T06:48:41.117Z,37.15
2019-02-05T06:51:12.726Z,33.78
2019-02-05T06:53:44.220Z,34.90
2019-02-05T06:56:15.904Z,34.38
2019-02-05T06:58:47.161Z,34.33
2019-02-05T07:01:18.404Z,32.93
2019-02-05T07:03:49.763Z,36.53
2019-02-05T07:06:21.139Z,35.90
2019-02-05T07:08:52.557Z,33.88
2019-02-05T07:11:25.311Z,37.83
2019-02-05T07:13:58.274Z,37.78
2019-02-05T07:16:29.790Z,40.15
2019-02-05T07:19:01.405Z,38.48
2019-02-05T07:21:33.140Z,38.95
2019-02-05T07:24:04.933Z,37.23
2019-02-05T07:26:36.677Z,34.67
2019-02-05T07:29:08.693Z,40.95
2019-02-05T07:31:40.381Z,38.15
2019-02-05T07:34:11.835Z,38.25
2019-02-05T07:36:43.784Z,34.03
2019-02-05T07:39:15.287Z,35.98
2019-02-05T07:41:46.847Z,37.10
2019-02-05T07:44:18.376Z,35.43
2019-02-05T07:46:50.107Z,35.20
2019-02-05T07:49:21.798Z,43.63
2019-02-05T07:51:53.641Z,39.85
2019-02-05T07:54:25.255Z,40.92
2019-02-05T07:56:57.090Z,43.87
2019-02-05T07:59:28.722Z,39.90
2019-02-05T08:02:00.525Z,37.50
2019-02-05T08:04:31.937Z,37.85
2019-02-05T08:07:03.704Z,36.85
2019-02-05T08:09:35.355Z,39.25
2019-02-05T08:12:07.041Z,45.17
2019-02-05T08:14:38.881Z,35.63
2019-02-05T08:17:10.509Z,40.88
2019-02-05T08:19:42.011Z,36.00
2019-02-05T08:22:13.996Z,36.40
2019-02-05T08:24:45.583Z,33.45
2019-02-05T08:27:17.197Z,36.38
2019-02-05T08:29:48.733Z,34.60
2019-02-05T08:32:20.379Z,37.98
2019-02-05T08:34:51.908Z,34.13
2019-02-05T08:37:23.717Z,36.28
2019-02-05T08:39:55.549Z,35.60
2019-02-05T08:42:27.345Z,33.38
2019-02-05T08:44:59.136Z,36.28
2019-02-05T08:47:30.827Z,33.67
2019-02-05T08:50:03.558Z,32.10
2019-02-05T08:52:35.112Z,35.45
2019-02-05T08:55:08.248Z,32.78
2019-02-05T08:57:39.802Z,30.97
2019-02-05T09:00:20.742Z,38.83
2019-02-05T09:02:52.857Z,34.63
2019-02-05T09:05:24.476Z,33.63
2019-02-05T09:07:56.011Z,36.50
2019-02-05T09:10:34.880Z,37.08
2019-02-05T09:13:07.037Z,33.23
2019-02-05T09:15:38.859Z,35.65
2019-02-05T09:18:10.915Z,39.33
2019-02-05T09:20:42.359Z,38.25
2019-02-05T09:23:14.506Z,38.70
2019-02-05T09:25:47.003Z,35.25
2019-02-05T09:28:18.574Z,36.42
2019-02-05T09:30:50.242Z,40.25
2019-02-05T09:33:21.739Z,39.05
2019-02-05T09:35:53.153Z,40.78
2019-02-05T09:38:24.497Z,43.87
2019-02-05T09:40:55.998Z,41.30
2019-02-05T09:43:27.475Z,41.65
2019-02-05T09:45:58.939Z,72.70
2019-02-05T09:48:30.235Z,44.70
2019-02-05T09:51:01.790Z,42.38
2019-02-05T09:53:33.312Z,40.45
2019-02-05T09:56:04.949Z,42.15
2019-02-05T09:58:36.579Z,44.40
2019-02-05T10:01:08.497Z,47.25
2019-02-05T10:03:40.120Z,47.83
2019-02-05T10:06:12.673Z,47.08
2019-02-05T10:08:45.490Z,48.48
2019-02-05T10:11:16.978Z,48.30
2019-02-05T10:13:48.856Z,47.03
2019-02-05T10:16:20.597Z,48.78
2019-02-05T10:18:52.048Z,49.05
2019-02-05T10:21:23.838Z,47.08
2019-02-05T10:23:55.526Z,43.75
2019-02-05T10:26:27.475Z,45.65
2019-02-05T10:28:59.201Z,45.60
2019-02-05T10:31:30.786Z,49.00
2019-02-05T10:34:02.515Z,49.45
2019-02-05T10:36:34.474Z,48.28
2019-02-05T10:39:09.557Z,49.05
2019-02-05T10:41:41.511Z,50.95
2019-02-05T10:44:13.167Z,50.08
2019-02-05T10:46:44.811Z,50.12
2019-02-05T10:49:16.528Z,49.43
2019-02-05T10:51:47.855Z,52.10
2019-02-05T10:54:19.269Z,53.43
2019-02-05T10:56:50.524Z,61.13
2019-02-05T10:59:21.708Z,52.20
2019-02-05T11:01:53.033Z,59.07
2019-02-05T11:18:28.065Z,41.13
2019-02-05T11:20:59.240Z,40.00
2019-02-05T11:26:19.595Z,28.60
2019-02-05T11:28:51.676Z,30.97
2019-02-05T11:31:23.050Z,45.90
2019-02-05T11:36:42.745Z,37.73
2019-02-05T11:39:16.697Z,30.60
2019-02-05T11:41:48.043Z,36.60
2019-02-05T11:44:19.111Z,34.93
2019-02-05T11:46:50.404Z,38.33
2019-02-05T11:49:21.828Z,34.43
2019-02-05T11:51:53.240Z,34.47
2019-02-05T11:54:24.660Z,37.33
2019-02-05T11:56:55.853Z,34.90
2019-02-05T11:59:26.954Z,35.73
2019-02-05T12:01:58.082Z,32.17
2019-02-05T12:04:30.044Z,32.37
2019-02-05T12:07:01.415Z,31.87
2019-02-05T12:09:32.761Z,33.80
2019-02-05T12:12:04.214Z,26.37
2019-02-05T12:14:35.470Z,26.70
2019-02-05T12:17:06.824Z,27.63
2019-02-05T12:19:38.258Z,21.70
2019-02-05T12:22:09.413Z,25.97
2019-02-05T12:24:41.059Z,25.50
2019-02-05T12:27:12.314Z,23.93
2019-02-05T12:29:43.587Z,22.13
2019-02-05T12:32:14.815Z,19.90
2019-02-05T12:34:46.048Z,31.23
2019-02-05T12:37:16.972Z,26.93
2019-02-05T12:39:48.230Z,28.20
2019-02-05T12:42:19.506Z,23.87
2019-02-05T12:44:50.688Z,26.27
2019-02-05T12:47:22.169Z,23.87
2019-02-05T12:49:53.509Z,27.70
2019-02-05T12:52:24.926Z,21.53
2019-02-05T12:54:56.251Z,23.73
2019-02-05T12:57:27.727Z,22.83
2019-02-05T12:59:59.340Z,23.07
2019-02-05T13:02:30.343Z,23.00
2019-02-05T13:05:01.875Z,19.40
2019-02-05T13:07:33.210Z,20.47
2019-02-05T13:10:05.205Z,22.97
2019-02-05T13:12:36.667Z,19.87
2019-02-05T13:15:08.323Z,18.17
2019-02-05T13:17:39.419Z,21.47
2019-02-05T13:20:14.352Z,18.67
2019-02-05T13:22:46.850Z,18.80
2019-02-05T13:25:20.715Z,18.00
2019-02-05T13:27:51.988Z,16.87
2019-02-05T13:30:25.299Z,16.30
2019-02-05T13:32:56.814Z,19.60
2019-02-05T13:35:28.248Z,22.87
2019-02-05T13:38:00.001Z,18.00
2019-02-05T13:40:31.696Z,15.80
2019-02-05T13:43:03.102Z,17.07
2019-02-05T13:45:35.273Z,22.00
2019-02-05T13:48:07.498Z,19.87
2019-02-05T13:50:38.947Z,18.03
2019-02-05T13:53:09.993Z,19.63
2019-02-05T13:55:45.653Z,21.37
2019-02-05T13:58:17.087Z,20.73
2019-02-05T14:00:50.275Z,18.90
2019-02-05T14:03:21.883Z,17.67
2019-02-05T14:05:53.103Z,19.03
2019-02-05T14:08:24.187Z,16.97
2019-02-05T14:10:55.298Z,19.47
2019-02-05T14:13:26.366Z,18.73
2019-02-05T14:15:57.424Z,20.07
2019-02-05T14:18:28.696Z,14.87
2019-02-05T14:20:59.883Z,19.60
2019-02-05T14:23:31.067Z,22.37
2019-02-05T14:26:02.528Z,18.60
2019-02-05T14:28:34.216Z,19.25
2019-02-05T14:31:05.830Z,16.93
2019-02-05T14:33:37.172Z,18.48
2019-02-05T14:36:08.619Z,21.07
2019-02-05T14:38:40.399Z,16.55
2019-02-05T14:41:11.877Z,18.80
2019-02-05T14:43:43.196Z,17.85
2019-02-05T14:46:14.563Z,14.83
2019-02-05T14:48:45.908Z,20.40
2019-02-05T14:51:17.393Z,16.70
2019-02-05T14:53:49.322Z,18.62
2019-02-05T14:56:20.939Z,20.92
2019-02-05T14:58:52.697Z,18.07
2019-02-05T15:01:24.176Z,16.60
2019-02-05T15:03:55.590Z,18.45
2019-02-05T15:06:27.377Z,18.57
2019-02-05T15:08:58.881Z,19.55
2019-02-05T15:11:30.092Z,22.70
2019-02-05T15:14:01.541Z,19.65
2019-02-05T15:16:32.864Z,20.05
2019-02-05T15:19:04.457Z,20.92
2019-02-05T15:21:35.767Z,17.10
2019-02-05T15:24:07.150Z,20.75
2019-02-05T15:26:38.332Z,24.67
2019-02-05T15:29:09.777Z,22.55
2019-02-05T15:31:41.495Z,20.72
2019-02-05T15:34:27.114Z,17.10
2019-02-05T15:36:58.467Z,16.75
2019-02-05T15:39:30.159Z,19.32
2019-02-05T15:42:02.078Z,14.58
2019-02-05T15:44:33.532Z,19.42
2019-02-05T15:47:04.848Z,19.37
2019-02-05T15:49:36.372Z,22.10
2019-02-05T15:52:08.040Z,21.35
2019-02-05T15:54:39.759Z,22.93
2019-02-05T15:57:11.167Z,20.37
2019-02-05T15:59:44.813Z,22.37
2019-02-05T16:02:16.390Z,25.48
2019-02-05T16:04:47.938Z,24.67
2019-02-05T16:07:19.395Z,24.70
2019-02-05T16:09:50.917Z,22.20
2019-02-05T16:12:22.543Z,23.70
2019-02-05T16:14:54.470Z,19.77
2019-02-05T16:17:25.954Z,19.32
2019-02-05T16:19:57.852Z,22.50
2019-02-05T16:22:29.182Z,22.82
2019-02-05T16:25:00.984Z,36.30
2019-02-05T16:27:32.558Z,21.82
2019-02-05T16:30:05.845Z,32.45
2019-02-05T16:32:37.919Z,19.48
2019-02-05T16:35:09.937Z,28.83
2019-02-05T16:37:41.511Z,18.67
2019-02-05T16:40:16.696Z,16.90
2019-02-05T16:42:48.363Z,22.05
2019-02-05T16:45:22.778Z,15.95
2019-02-05T16:47:54.335Z,20.85
2019-02-05T16:50:31.939Z,19.12
2019-02-05T16:53:03.685Z,18.95
2019-02-05T16:55:35.208Z,18.92
2019-02-05T16:58:07.333Z,18.52
2019-02-05T17:00:39.375Z,19.42
2019-02-05T17:03:10.759Z,18.23
2019-02-05T17:05:42.225Z,20.32
2019-02-05T17:08:13.885Z,21.23
2019-02-05T17:10:45.538Z,19.87
2019-02-05T17:13:17.229Z,23.05
2019-02-05T17:15:49.004Z,19.60
2019-02-05T17:18:23.697Z,20.00
2019-02-05T17:20:53.697Z,17.42
2019-02-05T17:23:25.076Z,17.27
2019-02-05T17:25:56.429Z,18.48
2019-02-05T17:28:27.857Z,17.75
2019-02-05T17:30:59.259Z,17.48
2019-02-05T17:33:30.947Z,15.88
2019-02-05T17:36:02.297Z,18.45
2019-02-05T17:38:33.742Z,15.75
2019-02-05T17:41:06.776Z,15.68
2019-02-05T17:43:38.489Z,17.23
2019-02-05T17:46:10.115Z,19.05
2019-02-05T17:48:41.642Z,16.85
2019-02-05T17:51:13.265Z,15.58
2019-02-05T17:53:44.690Z,16.67
2019-02-05T17:56:15.975Z,16.82
2019-02-05T17:58:47.892Z,16.65
2019-02-05T18:01:20.026Z,17.62
2019-02-05T18:03:51.625Z,19.07
2019-02-05T18:06:22.982Z,19.32
2019-02-05T18:08:54.644Z,19.75
2019-02-05T18:11:26.649Z,21.45
2019-02-05T18:13:58.037Z,17.17
2019-02-05T18:16:29.267Z,17.37
2019-02-05T18:19:00.809Z,16.70
2019-02-05T18:21:31.956Z,18.92
2019-02-05T18:24:03.672Z,14.00
2019-02-05T18:26:35.378Z,20.90
2019-02-05T18:29:07.661Z,21.05
2019-02-05T18:31:39.414Z,18.02
2019-02-05T18:34:11.118Z,17.70
2019-02-05T18:36:42.729Z,19.00
2019-02-05T18:39:14.262Z,16.12
2019-02-05T18:41:45.804Z,16.27
2019-02-05T18:44:17.115Z,15.15
2019-02-05T18:46:48.353Z,21.07
2019-02-05T18:49:19.902Z,15.72
2019-02-05T18:51:51.229Z,13.83
2019-02-05T18:54:22.458Z,15.32
2019-02-05T18:56:53.818Z,14.28
2019-02-05T18:59:25.215Z,12.80
2019-02-05T19:01:57.233Z,13.70
2019-02-05T19:04:28.808Z,14.63
2019-02-05T19:07:00.211Z,16.30
2019-02-05T19:09:31.933Z,13.85
2019-02-05T19:12:04.982Z,15.20
2019-02-05T19:14:36.657Z,14.45
2019-02-05T19:17:08.173Z,13.75
2019-02-05T19:19:39.714Z,12.60
2019-02-05T19:22:11.749Z,12.85
2019-02-05T19:24:48.523Z,11.70
2019-02-05T19:27:20.239Z,12.55
2019-02-05T19:29:51.694Z,12.90
2019-02-05T19:32:26.711Z,10.38
2019-02-05T19:34:58.479Z,10.25
2019-02-05T19:37:29.942Z,11.63
2019-02-05T19:40:01.438Z,12.98
2019-02-05T19:42:33.126Z,11.33
2019-02-05T19:45:17.477Z,15.80
2019-02-05T19:47:49.259Z,14.25
2019-02-05T19:50:20.469Z,12.70
2019-02-05T19:52:51.987Z,12.00
2019-02-05T19:55:23.712Z,15.38
2019-02-05T19:57:55.768Z,11.57
2019-02-05T20:00:27.472Z,13.30
2019-02-05T20:02:58.860Z,11.57
2019-02-05T20:05:30.280Z,11.45
2019-02-05T20:08:01.485Z,13.35
2019-02-05T20:10:33.163Z,11.90
2019-02-05T20:13:04.863Z,10.53
2019-02-05T20:15:36.194Z,10.78
2019-02-05T20:18:07.737Z,11.60
2019-02-05T20:20:38.952Z,12.75
2019-02-05T20:23:11.275Z,11.12
2019-02-05T20:25:42.518Z,12.68
2019-02-05T20:28:14.083Z,13.35
2019-02-05T20:30:45.555Z,13.70
2019-02-05T20:33:17.497Z,12.63
2019-02-05T20:35:49.173Z,12.90
2019-02-05T20:38:20.788Z,13.32
2019-02-05T20:40:52.358Z,12.13
2019-02-05T20:43:23.642Z,10.35
2019-02-05T20:45:55.018Z,9.15
2019-02-05T20:48:26.291Z,8.75
2019-02-05T20:50:57.686Z,12.13
2019-02-05T20:53:28.978Z,9.35
2019-02-05T20:56:00.647Z,10.28
2019-02-05T20:58:31.968Z,10.63
2019-02-05T21:01:03.972Z,13.53
2019-02-05T21:03:35.392Z,25.12
2019-02-05T21:06:07.424Z,11.57
2019-02-05T21:08:39.019Z,11.15
2019-02-05T21:11:10.788Z,11.10
2019-02-05T21:13:42.146Z,10.05
2019-02-05T21:16:13.550Z,8.38
2019-02-05T21:18:44.887Z,11.10
2019-02-05T21:21:16.122Z,9.83
2019-02-05T21:23:47.513Z,9.55
2019-02-05T21:26:18.808Z,9.23
2019-02-05T21:28:50.512Z,10.90
2019-02-05T21:31:22.041Z,9.20
2019-02-05T21:33:53.615Z,9.78
2019-02-05T21:36:24.963Z,10.00
2019-02-05T21:38:56.186Z,9.63
2019-02-05T21:41:27.954Z,8.55
2019-02-05T21:43:59.182Z,8.15
2019-02-05T21:46:30.429Z,8.15
2019-02-05T21:49:01.788Z,8.40
2019-02-05T21:54:07.008Z,7.75
2019-02-05T21:56:38.481Z,10.00
2019-02-05T21:59:09.930Z,10.32
2019-02-05T22:01:42.536Z,7.87
2019-02-05T22:04:13.963Z,10.08
2019-02-05T22:06:45.697Z,8.43
2019-02-05T22:09:17.610Z,11.03
2019-02-05T22:11:48.992Z,9.45
2019-02-05T22:14:20.453Z,10.00
2019-02-05T22:16:51.648Z,11.85
2019-02-05T22:19:23.309Z,9.73
2019-02-05T22:21:54.690Z,10.23
2019-02-05T22:24:26.341Z,8.55
2019-02-05T22:26:57.598Z,8.18
2019-02-05T22:29:28.857Z,9.00
2019-02-05T22:32:00.138Z,8.95
2019-02-05T22:34:38.857Z,9.00
2019-02-05T22:37:04.687Z,11.35
2019-02-05T22:39:36.227Z,8.73
2019-02-05T22:42:07.692Z,8.55
2019-02-05T22:44:39.016Z,9.08
2019-02-05T22:47:10.380Z,9.63
2019-02-05T22:49:41.579Z,8.20
2019-02-05T22:52:13.202Z,8.73
2019-02-05T22:54:44.773Z,10.28
2019-02-05T22:57:16.149Z,10.80
2019-02-05T22:59:47.555Z,8.30
2019-02-05T23:02:19.631Z,11.05
2019-02-05T23:05:46.336Z,9.43
2019-02-05T23:08:17.623Z,10.58
2019-02-05T23:11:19.726Z,9.58
2019-02-05T23:13:51.227Z,8.65
2019-02-05T23:16:22.774Z,8.88
2019-02-05T23:18:54.416Z,10.32
2019-02-05T23:21:25.937Z,9.38
2019-02-05T23:23:57.636Z,9.25
2019-02-05T23:26:29.379Z,9.38
2019-02-05T23:29:01.041Z,8.85
2019-02-05T23:31:32.525Z,9.68
2019-02-05T23:34:04.126Z,8.08
2019-02-05T23:36:35.692Z,10.63
2019-02-05T23:39:07.228Z,9.75
2019-02-05T23:41:40.050Z,6.45
2019-02-05T23:44:11.535Z,6.03
2019-02-05T23:46:43.068Z,5.40
2019-02-05T23:49:14.579Z,7.30
2019-02-05T23:51:46.230Z,7.25
2019-02-05T23:54:17.761Z,5.15
2019-02-05T23:56:48.981Z,7.03
2019-02-05T23:59:20.350Z,7.62
